sensor_id;sensor_type;location;lat;lon;timestamp;temperature;humidity
36652;DHT22;53334;51.976;20.144;2023-08-30T00:01:16;26.70;59.00
36652;DHT22;53334;51.976;20.144;2023-08-30T00:03:51;26.70;59.10
36652;DHT22;53334;51.976;20.144;2023-08-30T00:06:24;26.70;59.30
36652;DHT22;53334;51.976;20.144;2023-08-30T00:08:57;26.70;59.40
36652;DHT22;53334;51.976;20.144;2023-08-30T00:11:31;26.70;59.50
36652;DHT22;53334;51.976;20.144;2023-08-30T00:14:05;26.70;59.60
36652;DHT22;53334;51.976;20.144;2023-08-30T00:16:39;26.70;59.70
36652;DHT22;53334;51.976;20.144;2023-08-30T00:19:14;26.70;59.80
36652;DHT22;53334;51.976;20.144;2023-08-30T00:21:47;26.70;59.90
36652;DHT22;53334;51.976;20.144;2023-08-30T00:24:21;26.70;60.00
36652;DHT22;53334;51.976;20.144;2023-08-30T00:26:54;26.70;60.20
36652;DHT22;53334;51.976;20.144;2023-08-30T00:29:27;26.70;60.20
36652;DHT22;53334;51.976;20.144;2023-08-30T00:32:01;26.70;60.30
36652;DHT22;53334;51.976;20.144;2023-08-30T00:34:35;26.70;60.40
36652;DHT22;53334;51.976;20.144;2023-08-30T00:37:09;26.70;60.50
36652;DHT22;53334;51.976;20.144;2023-08-30T00:39:42;26.70;60.60
36652;DHT22;53334;51.976;20.144;2023-08-30T00:42:15;26.80;60.70
36652;DHT22;53334;51.976;20.144;2023-08-30T00:44:49;26.70;60.70
36652;DHT22;53334;51.976;20.144;2023-08-30T00:47:22;26.70;60.80
36652;DHT22;53334;51.976;20.144;2023-08-30T00:49:57;26.80;60.90
36652;DHT22;53334;51.976;20.144;2023-08-30T00:52:30;26.80;61.00
36652;DHT22;53334;51.976;20.144;2023-08-30T00:55:04;26.70;60.90
36652;DHT22;53334;51.976;20.144;2023-08-30T00:57:39;26.80;61.00
36652;DHT22;53334;51.976;20.144;2023-08-30T01:00:12;26.80;61.10
36652;DHT22;53334;51.976;20.144;2023-08-30T01:02:46;26.80;61.20
36652;DHT22;53334;51.976;20.144;2023-08-30T01:05:20;26.70;61.20
36652;DHT22;53334;51.976;20.144;2023-08-30T01:07:54;26.80;61.40
36652;DHT22;53334;51.976;20.144;2023-08-30T01:10:36;26.80;61.40
36652;DHT22;53334;51.976;20.144;2023-08-30T01:13:13;26.80;61.50
36652;DHT22;53334;51.976;20.144;2023-08-30T01:15:51;26.80;61.50
36652;DHT22;53334;51.976;20.144;2023-08-30T01:18:28;26.80;61.50
36652;DHT22;53334;51.976;20.144;2023-08-30T01:21:04;26.80;61.50
36652;DHT22;53334;51.976;20.144;2023-08-30T01:23:46;26.80;61.60
36652;DHT22;53334;51.976;20.144;2023-08-30T01:29:17;26.80;61.70
36652;DHT22;53334;51.976;20.144;2023-08-30T01:31:51;26.80;61.70
36652;DHT22;53334;51.976;20.144;2023-08-30T01:34:25;26.80;61.70
36652;DHT22;53334;51.976;20.144;2023-08-30T01:36:58;26.80;61.70
36652;DHT22;53334;51.976;20.144;2023-08-30T01:39:32;26.80;61.70
36652;DHT22;53334;51.976;20.144;2023-08-30T01:42:07;26.80;61.70
36652;DHT22;53334;51.976;20.144;2023-08-30T01:44:43;26.80;61.80
36652;DHT22;53334;51.976;20.144;2023-08-30T01:47:17;26.80;61.90
36652;DHT22;53334;51.976;20.144;2023-08-30T01:49:52;26.80;61.90
36652;DHT22;53334;51.976;20.144;2023-08-30T01:52:26;26.80;61.90
36652;DHT22;53334;51.976;20.144;2023-08-30T01:55:00;26.80;62.00
36652;DHT22;53334;51.976;20.144;2023-08-30T01:57:35;26.80;62.00
36652;DHT22;53334;51.976;20.144;2023-08-30T02:00:12;26.80;62.00
36652;DHT22;53334;51.976;20.144;2023-08-30T02:02:48;26.80;62.00
36652;DHT22;53334;51.976;20.144;2023-08-30T02:05:24;26.80;62.00
36652;DHT22;53334;51.976;20.144;2023-08-30T02:08:03;26.80;62.00
36652;DHT22;53334;51.976;20.144;2023-08-30T02:10:42;26.80;62.10
36652;DHT22;53334;51.976;20.144;2023-08-30T02:13:18;26.80;62.10
36652;DHT22;53334;51.976;20.144;2023-08-30T02:15:56;26.80;62.10
36652;DHT22;53334;51.976;20.144;2023-08-30T02:18:32;26.80;62.10
36652;DHT22;53334;51.976;20.144;2023-08-30T02:21:06;26.80;62.10
36652;DHT22;53334;51.976;20.144;2023-08-30T02:23:39;26.80;62.10
36652;DHT22;53334;51.976;20.144;2023-08-30T02:26:13;26.80;62.20
36652;DHT22;53334;51.976;20.144;2023-08-30T02:28:46;26.80;62.10
36652;DHT22;53334;51.976;20.144;2023-08-30T02:31:21;26.80;62.20
36652;DHT22;53334;51.976;20.144;2023-08-30T02:33:54;26.80;62.20
36652;DHT22;53334;51.976;20.144;2023-08-30T02:36:27;26.80;62.20
36652;DHT22;53334;51.976;20.144;2023-08-30T02:39:01;26.80;62.80
36652;DHT22;53334;51.976;20.144;2023-08-30T02:41:35;26.80;62.30
36652;DHT22;53334;51.976;20.144;2023-08-30T02:44:11;26.80;62.30
36652;DHT22;53334;51.976;20.144;2023-08-30T02:46:47;26.80;62.30
36652;DHT22;53334;51.976;20.144;2023-08-30T02:49:21;26.80;62.30
36652;DHT22;53334;51.976;20.144;2023-08-30T02:51:55;26.80;62.30
36652;DHT22;53334;51.976;20.144;2023-08-30T02:54:28;26.80;62.30
36652;DHT22;53334;51.976;20.144;2023-08-30T02:57:02;26.80;62.30
36652;DHT22;53334;51.976;20.144;2023-08-30T02:59:36;26.80;62.40
36652;DHT22;53334;51.976;20.144;2023-08-30T03:02:12;26.80;62.30
36652;DHT22;53334;51.976;20.144;2023-08-30T03:04:45;26.80;62.40
36652;DHT22;53334;51.976;20.144;2023-08-30T03:07:19;26.80;62.30
36652;DHT22;53334;51.976;20.144;2023-08-30T03:09:52;26.80;62.40
36652;DHT22;53334;51.976;20.144;2023-08-30T03:12:26;26.80;62.40
36652;DHT22;53334;51.976;20.144;2023-08-30T03:14:59;26.80;62.40
36652;DHT22;53334;51.976;20.144;2023-08-30T03:17:34;26.80;62.50
36652;DHT22;53334;51.976;20.144;2023-08-30T03:20:08;26.80;62.50
36652;DHT22;53334;51.976;20.144;2023-08-30T03:22:42;26.80;62.70
36652;DHT22;53334;51.976;20.144;2023-08-30T03:25:15;26.80;62.70
36652;DHT22;53334;51.976;20.144;2023-08-30T03:27:49;26.80;62.70
36652;DHT22;53334;51.976;20.144;2023-08-30T03:30:22;26.80;62.70
36652;DHT22;53334;51.976;20.144;2023-08-30T03:32:59;26.80;62.70
36652;DHT22;53334;51.976;20.144;2023-08-30T03:35:34;26.80;62.70
36652;DHT22;53334;51.976;20.144;2023-08-30T03:38:07;26.80;62.70
36652;DHT22;53334;51.976;20.144;2023-08-30T03:40:41;26.80;62.70
36652;DHT22;53334;51.976;20.144;2023-08-30T03:43:14;26.80;63.30
36652;DHT22;53334;51.976;20.144;2023-08-30T03:45:48;26.80;62.70
36652;DHT22;53334;51.976;20.144;2023-08-30T03:48:24;26.80;62.70
36652;DHT22;53334;51.976;20.144;2023-08-30T03:50:57;26.80;62.70
36652;DHT22;53334;51.976;20.144;2023-08-30T03:53:31;26.80;62.70
36652;DHT22;53334;51.976;20.144;2023-08-30T03:56:05;26.80;62.70
36652;DHT22;53334;51.976;20.144;2023-08-30T03:58:39;26.80;62.70
36652;DHT22;53334;51.976;20.144;2023-08-30T04:01:12;26.80;62.70
36652;DHT22;53334;51.976;20.144;2023-08-30T04:03:47;26.80;62.70
36652;DHT22;53334;51.976;20.144;2023-08-30T04:06:20;26.80;62.80
36652;DHT22;53334;51.976;20.144;2023-08-30T04:08:55;26.80;62.80
36652;DHT22;53334;51.976;20.144;2023-08-30T04:11:28;26.80;62.80
36652;DHT22;53334;51.976;20.144;2023-08-30T04:14:01;26.80;62.80
36652;DHT22;53334;51.976;20.144;2023-08-30T04:16:35;26.80;62.80
36652;DHT22;53334;51.976;20.144;2023-08-30T04:19:13;26.80;62.80
36652;DHT22;53334;51.976;20.144;2023-08-30T04:21:46;26.80;62.80
36652;DHT22;53334;51.976;20.144;2023-08-30T04:24:20;26.80;62.80
36652;DHT22;53334;51.976;20.144;2023-08-30T04:26:53;26.80;62.90
36652;DHT22;53334;51.976;20.144;2023-08-30T04:29:26;26.80;62.90
36652;DHT22;53334;51.976;20.144;2023-08-30T04:31:59;26.80;62.90
36652;DHT22;53334;51.976;20.144;2023-08-30T04:34:34;26.80;62.90
36652;DHT22;53334;51.976;20.144;2023-08-30T04:37:08;26.80;62.90
36652;DHT22;53334;51.976;20.144;2023-08-30T04:39:41;26.80;63.00
36652;DHT22;53334;51.976;20.144;2023-08-30T04:42:14;26.80;63.30
36652;DHT22;53334;51.976;20.144;2023-08-30T04:44:47;26.80;62.80
36652;DHT22;53334;51.976;20.144;2023-08-30T04:47:21;26.80;62.80
36652;DHT22;53334;51.976;20.144;2023-08-30T04:49:56;26.80;62.80
36652;DHT22;53334;51.976;20.144;2023-08-30T04:52:29;26.80;63.40
36652;DHT22;53334;51.976;20.144;2023-08-30T04:55:03;26.80;62.90
36652;DHT22;53334;51.976;20.144;2023-08-30T04:57:37;26.80;62.90
36652;DHT22;53334;51.976;20.144;2023-08-30T05:00:11;26.80;62.90
36652;DHT22;53334;51.976;20.144;2023-08-30T05:02:45;26.80;62.90
36652;DHT22;53334;51.976;20.144;2023-08-30T05:05:21;26.80;63.40
36652;DHT22;53334;51.976;20.144;2023-08-30T05:07:54;26.80;62.90
36652;DHT22;53334;51.976;20.144;2023-08-30T05:10:28;26.80;62.80
36652;DHT22;53334;51.976;20.144;2023-08-30T05:13:01;26.80;62.90
36652;DHT22;53334;51.976;20.144;2023-08-30T05:15:36;26.80;62.90
36652;DHT22;53334;51.976;20.144;2023-08-30T05:18:09;26.80;62.80
36652;DHT22;53334;51.976;20.144;2023-08-30T05:20:45;26.80;62.80
36652;DHT22;53334;51.976;20.144;2023-08-30T05:23:18;26.80;63.30
36652;DHT22;53334;51.976;20.144;2023-08-30T05:25:52;26.80;62.70
36652;DHT22;53334;51.976;20.144;2023-08-30T05:28:25;26.80;62.70
36652;DHT22;53334;51.976;20.144;2023-08-30T05:30:58;26.80;62.70
36652;DHT22;53334;51.976;20.144;2023-08-30T05:33:58;26.80;62.70
36652;DHT22;53334;51.976;20.144;2023-08-30T05:36:51;26.80;62.70
36652;DHT22;53334;51.976;20.144;2023-08-30T05:39:48;26.80;62.70
36652;DHT22;53334;51.976;20.144;2023-08-30T05:42:21;26.80;62.70
36652;DHT22;53334;51.976;20.144;2023-08-30T05:44:54;26.80;62.70
36652;DHT22;53334;51.976;20.144;2023-08-30T05:47:28;26.80;62.70
36652;DHT22;53334;51.976;20.144;2023-08-30T05:50:01;26.80;62.70
36652;DHT22;53334;51.976;20.144;2023-08-30T05:52:36;26.80;62.70
36652;DHT22;53334;51.976;20.144;2023-08-30T05:55:13;26.80;62.70
36652;DHT22;53334;51.976;20.144;2023-08-30T05:57:46;26.80;62.70
36652;DHT22;53334;51.976;20.144;2023-08-30T06:00:20;26.80;62.70
36652;DHT22;53334;51.976;20.144;2023-08-30T06:02:53;26.80;62.70
36652;DHT22;53334;51.976;20.144;2023-08-30T06:05:27;26.80;62.70
36652;DHT22;53334;51.976;20.144;2023-08-30T06:08:01;26.80;62.70
36652;DHT22;53334;51.976;20.144;2023-08-30T06:10:36;26.80;62.70
36652;DHT22;53334;51.976;20.144;2023-08-30T06:13:10;26.80;62.70
36652;DHT22;53334;51.976;20.144;2023-08-30T06:15:43;26.80;62.70
36652;DHT22;53334;51.976;20.144;2023-08-30T06:18:17;26.80;62.70
36652;DHT22;53334;51.976;20.144;2023-08-30T06:20:51;26.80;62.70
36652;DHT22;53334;51.976;20.144;2023-08-30T06:23:25;26.80;62.70
36652;DHT22;53334;51.976;20.144;2023-08-30T06:25:58;26.80;62.70
36652;DHT22;53334;51.976;20.144;2023-08-30T06:28:32;26.80;62.60
36652;DHT22;53334;51.976;20.144;2023-08-30T06:31:05;26.80;62.60
36652;DHT22;53334;51.976;20.144;2023-08-30T06:33:40;26.80;62.50
36652;DHT22;53334;51.976;20.144;2023-08-30T06:36:13;26.80;63.30
36652;DHT22;53334;51.976;20.144;2023-08-30T06:38:49;26.80;62.50
36652;DHT22;53334;51.976;20.144;2023-08-30T06:41:22;26.80;62.50
36652;DHT22;53334;51.976;20.144;2023-08-30T06:43:56;26.80;63.20
36652;DHT22;53334;51.976;20.144;2023-08-30T06:46:30;26.80;62.60
36652;DHT22;53334;51.976;20.144;2023-08-30T06:49:03;26.80;62.70
36652;DHT22;53334;51.976;20.144;2023-08-30T06:51:37;26.80;62.70
36652;DHT22;53334;51.976;20.144;2023-08-30T06:54:11;26.80;62.70
36652;DHT22;53334;51.976;20.144;2023-08-30T06:56:57;26.80;63.20
36652;DHT22;53334;51.976;20.144;2023-08-30T06:59:30;26.80;62.70
36652;DHT22;53334;51.976;20.144;2023-08-30T07:02:04;26.80;62.70
36652;DHT22;53334;51.976;20.144;2023-08-30T07:04:37;26.80;62.70
36652;DHT22;53334;51.976;20.144;2023-08-30T07:07:12;26.80;62.70
36652;DHT22;53334;51.976;20.144;2023-08-30T07:09:47;26.80;62.70
36652;DHT22;53334;51.976;20.144;2023-08-30T07:12:20;26.80;62.50
36652;DHT22;53334;51.976;20.144;2023-08-30T07:14:54;26.80;62.50
36652;DHT22;53334;51.976;20.144;2023-08-30T07:17:27;26.80;62.40
36652;DHT22;53334;51.976;20.144;2023-08-30T07:20:21;26.80;62.40
36652;DHT22;53334;51.976;20.144;2023-08-30T07:22:54;26.70;62.30
36652;DHT22;53334;51.976;20.144;2023-08-30T07:25:29;26.80;62.50
36652;DHT22;53334;51.976;20.144;2023-08-30T07:28:03;26.80;62.90
36652;DHT22;53334;51.976;20.144;2023-08-30T07:30:37;26.80;63.10
36652;DHT22;53334;51.976;20.144;2023-08-30T07:33:11;26.80;63.10
36652;DHT22;53334;51.976;20.144;2023-08-30T07:35:44;26.80;62.90
36652;DHT22;53334;51.976;20.144;2023-08-30T07:38:17;26.80;62.60
36652;DHT22;53334;51.976;20.144;2023-08-30T07:40:53;26.70;62.20
36652;DHT22;53334;51.976;20.144;2023-08-30T07:43:27;26.80;61.20
36652;DHT22;53334;51.976;20.144;2023-08-30T07:46:00;26.70;60.60
36652;DHT22;53334;51.976;20.144;2023-08-30T07:48:34;26.70;60.30
36652;DHT22;53334;51.976;20.144;2023-08-30T07:51:07;26.70;60.30
36652;DHT22;53334;51.976;20.144;2023-08-30T07:53:40;26.70;60.40
36652;DHT22;53334;51.976;20.144;2023-08-30T07:56:15;26.70;60.40
36652;DHT22;53334;51.976;20.144;2023-08-30T07:58:49;26.70;60.40
36652;DHT22;53334;51.976;20.144;2023-08-30T08:01:22;26.70;60.50
36652;DHT22;53334;51.976;20.144;2023-08-30T08:03:56;26.70;60.50
36652;DHT22;53334;51.976;20.144;2023-08-30T08:06:38;26.70;60.70
36652;DHT22;53334;51.976;20.144;2023-08-30T08:09:12;26.70;60.70
36652;DHT22;53334;51.976;20.144;2023-08-30T08:11:46;26.70;60.90
36652;DHT22;53334;51.976;20.144;2023-08-30T08:14:20;26.70;60.90
36652;DHT22;53334;51.976;20.144;2023-08-30T08:16:53;26.70;60.90
36652;DHT22;53334;51.976;20.144;2023-08-30T08:19:27;26.70;61.00
36652;DHT22;53334;51.976;20.144;2023-08-30T08:22:01;26.70;61.10
36652;DHT22;53334;51.976;20.144;2023-08-30T08:24:34;26.70;61.10
36652;DHT22;53334;51.976;20.144;2023-08-30T08:27:09;26.70;61.00
36652;DHT22;53334;51.976;20.144;2023-08-30T08:29:43;26.70;60.90
36652;DHT22;53334;51.976;20.144;2023-08-30T08:32:16;26.70;60.90
36652;DHT22;53334;51.976;20.144;2023-08-30T08:34:49;26.70;60.90
36652;DHT22;53334;51.976;20.144;2023-08-30T08:37:23;26.70;61.00
36652;DHT22;53334;51.976;20.144;2023-08-30T08:39:56;26.70;61.60
36652;DHT22;53334;51.976;20.144;2023-08-30T08:42:31;26.70;62.70
36652;DHT22;53334;51.976;20.144;2023-08-30T08:45:06;26.70;61.80
36652;DHT22;53334;51.976;20.144;2023-08-30T08:47:40;26.70;61.50
36652;DHT22;53334;51.976;20.144;2023-08-30T08:50:14;26.70;61.50
36652;DHT22;53334;51.976;20.144;2023-08-30T08:52:48;26.70;61.60
36652;DHT22;53334;51.976;20.144;2023-08-30T08:55:31;26.70;61.70
36652;DHT22;53334;51.976;20.144;2023-08-30T08:58:08;26.70;62.00
36652;DHT22;53334;51.976;20.144;2023-08-30T09:00:41;26.70;62.60
36652;DHT22;53334;51.976;20.144;2023-08-30T09:03:15;26.70;62.30
36652;DHT22;53334;51.976;20.144;2023-08-30T09:05:50;26.70;62.20
36652;DHT22;53334;51.976;20.144;2023-08-30T09:08:24;26.70;62.00
36652;DHT22;53334;51.976;20.144;2023-08-30T09:10:59;26.70;61.80
36652;DHT22;53334;51.976;20.144;2023-08-30T09:13:34;26.70;61.70
36652;DHT22;53334;51.976;20.144;2023-08-30T09:16:11;26.70;61.60
36652;DHT22;53334;51.976;20.144;2023-08-30T09:18:57;26.70;61.50
36652;DHT22;53334;51.976;20.144;2023-08-30T09:21:50;26.70;61.20
36652;DHT22;53334;51.976;20.144;2023-08-30T09:24:24;26.70;61.10
36652;DHT22;53334;51.976;20.144;2023-08-30T09:26:58;26.70;61.20
36652;DHT22;53334;51.976;20.144;2023-08-30T09:29:32;26.60;61.00
36652;DHT22;53334;51.976;20.144;2023-08-30T09:32:08;26.70;61.00
36652;DHT22;53334;51.976;20.144;2023-08-30T09:34:45;26.60;60.80
36652;DHT22;53334;51.976;20.144;2023-08-30T09:37:20;26.60;60.60
36652;DHT22;53334;51.976;20.144;2023-08-30T09:39:53;26.60;60.70
36652;DHT22;53334;51.976;20.144;2023-08-30T09:42:27;26.60;61.10
36652;DHT22;53334;51.976;20.144;2023-08-30T09:45:04;26.60;60.50
36652;DHT22;53334;51.976;20.144;2023-08-30T09:47:38;26.60;60.40
36652;DHT22;53334;51.976;20.144;2023-08-30T09:50:13;26.60;60.40
36652;DHT22;53334;51.976;20.144;2023-08-30T09:52:50;26.60;60.40
36652;DHT22;53334;51.976;20.144;2023-08-30T09:55:25;26.60;60.40
36652;DHT22;53334;51.976;20.144;2023-08-30T09:58:00;26.60;60.40
36652;DHT22;53334;51.976;20.144;2023-08-30T10:00:36;26.60;60.40
36652;DHT22;53334;51.976;20.144;2023-08-30T10:03:10;26.60;60.30
36652;DHT22;53334;51.976;20.144;2023-08-30T10:06:02;26.60;60.30
36652;DHT22;53334;51.976;20.144;2023-08-30T10:08:37;26.60;60.20
36652;DHT22;53334;51.976;20.144;2023-08-30T10:11:12;26.60;60.20
36652;DHT22;53334;51.976;20.144;2023-08-30T10:13:47;26.60;60.20
36652;DHT22;53334;51.976;20.144;2023-08-30T10:16:24;26.60;60.10
36652;DHT22;53334;51.976;20.144;2023-08-30T10:19:02;26.60;60.10
36652;DHT22;53334;51.976;20.144;2023-08-30T10:21:40;26.60;60.10
36652;DHT22;53334;51.976;20.144;2023-08-30T10:24:19;26.60;60.00
36652;DHT22;53334;51.976;20.144;2023-08-30T10:27:10;26.60;59.90
36652;DHT22;53334;51.976;20.144;2023-08-30T10:29:45;26.60;59.90
36652;DHT22;53334;51.976;20.144;2023-08-30T10:32:22;26.60;59.80
36652;DHT22;53334;51.976;20.144;2023-08-30T10:34:55;26.60;59.80
36652;DHT22;53334;51.976;20.144;2023-08-30T10:37:30;26.60;59.80
36652;DHT22;53334;51.976;20.144;2023-08-30T10:40:09;26.60;59.80
36652;DHT22;53334;51.976;20.144;2023-08-30T10:42:44;26.60;59.80
36652;DHT22;53334;51.976;20.144;2023-08-30T10:45:23;26.60;59.70
36652;DHT22;53334;51.976;20.144;2023-08-30T10:47:59;26.60;59.70
36652;DHT22;53334;51.976;20.144;2023-08-30T10:50:33;26.60;59.70
36652;DHT22;53334;51.976;20.144;2023-08-30T10:53:13;26.60;59.60
36652;DHT22;53334;51.976;20.144;2023-08-30T10:56:07;26.60;59.60
36652;DHT22;53334;51.976;20.144;2023-08-30T10:58:43;26.60;59.60
36652;DHT22;53334;51.976;20.144;2023-08-30T11:01:16;26.60;59.80
36652;DHT22;53334;51.976;20.144;2023-08-30T11:03:52;26.60;60.00
36652;DHT22;53334;51.976;20.144;2023-08-30T11:06:46;26.60;60.40
36652;DHT22;53334;51.976;20.144;2023-08-30T11:09:21;26.60;60.80
36652;DHT22;53334;51.976;20.144;2023-08-30T11:11:55;26.60;61.00
36652;DHT22;53334;51.976;20.144;2023-08-30T11:14:28;26.60;61.10
36652;DHT22;53334;51.976;20.144;2023-08-30T11:17:02;26.60;61.20
36652;DHT22;53334;51.976;20.144;2023-08-30T11:19:37;26.60;61.40
36652;DHT22;53334;51.976;20.144;2023-08-30T11:22:10;26.70;62.10
36652;DHT22;53334;51.976;20.144;2023-08-30T11:24:47;26.70;62.50
36652;DHT22;53334;51.976;20.144;2023-08-30T11:27:20;26.70;63.50
36652;DHT22;53334;51.976;20.144;2023-08-30T11:29:59;26.70;63.10
36652;DHT22;53334;51.976;20.144;2023-08-30T11:32:33;26.70;63.20
36652;DHT22;53334;51.976;20.144;2023-08-30T11:35:08;26.70;63.20
36652;DHT22;53334;51.976;20.144;2023-08-30T11:37:43;26.70;63.50
36652;DHT22;53334;51.976;20.144;2023-08-30T11:40:17;26.70;63.50
36652;DHT22;53334;51.976;20.144;2023-08-30T11:42:50;26.70;63.50
36652;DHT22;53334;51.976;20.144;2023-08-30T11:45:24;26.70;63.40
36652;DHT22;53334;51.976;20.144;2023-08-30T11:47:57;26.80;63.30
36652;DHT22;53334;51.976;20.144;2023-08-30T11:50:33;26.80;63.20
36652;DHT22;53334;51.976;20.144;2023-08-30T11:53:19;26.80;63.30
36652;DHT22;53334;51.976;20.144;2023-08-30T11:55:53;26.70;63.10
36652;DHT22;53334;51.976;20.144;2023-08-30T11:58:27;26.80;63.00
36652;DHT22;53334;51.976;20.144;2023-08-30T12:01:03;26.80;62.90
36652;DHT22;53334;51.976;20.144;2023-08-30T12:03:37;26.70;62.70
36652;DHT22;53334;51.976;20.144;2023-08-30T12:06:12;26.80;63.00
36652;DHT22;53334;51.976;20.144;2023-08-30T12:08:45;26.70;63.00
36652;DHT22;53334;51.976;20.144;2023-08-30T12:11:18;26.70;62.90
36652;DHT22;53334;51.976;20.144;2023-08-30T12:13:52;26.70;62.80
36652;DHT22;53334;51.976;20.144;2023-08-30T12:16:25;26.70;62.60
36652;DHT22;53334;51.976;20.144;2023-08-30T12:19:07;26.70;62.60
36652;DHT22;53334;51.976;20.144;2023-08-30T12:21:43;26.70;62.30
36652;DHT22;53334;51.976;20.144;2023-08-30T12:24:16;26.70;62.20
36652;DHT22;53334;51.976;20.144;2023-08-30T12:26:50;26.70;62.40
36652;DHT22;53334;51.976;20.144;2023-08-30T12:29:23;26.70;62.60
36652;DHT22;53334;51.976;20.144;2023-08-30T12:31:56;26.80;62.70
36652;DHT22;53334;51.976;20.144;2023-08-30T12:34:29;26.80;62.80
36652;DHT22;53334;51.976;20.144;2023-08-30T12:37:04;26.80;63.00
36652;DHT22;53334;51.976;20.144;2023-08-30T12:39:38;26.80;63.30
36652;DHT22;53334;51.976;20.144;2023-08-30T12:42:11;26.80;63.50
36652;DHT22;53334;51.976;20.144;2023-08-30T12:44:44;26.80;63.80
36652;DHT22;53334;51.976;20.144;2023-08-30T12:47:18;26.80;63.80
36652;DHT22;53334;51.976;20.144;2023-08-30T12:49:51;26.80;64.60
36652;DHT22;53334;51.976;20.144;2023-08-30T12:52:26;26.90;64.90
36652;DHT22;53334;51.976;20.144;2023-08-30T12:54:59;26.90;64.70
36652;DHT22;53334;51.976;20.144;2023-08-30T12:57:33;26.90;64.90
36652;DHT22;53334;51.976;20.144;2023-08-30T13:00:07;26.90;65.00
36652;DHT22;53334;51.976;20.144;2023-08-30T13:02:42;26.90;65.00
36652;DHT22;53334;51.976;20.144;2023-08-30T13:05:15;26.90;65.20
36652;DHT22;53334;51.976;20.144;2023-08-30T13:07:51;26.90;64.80
36652;DHT22;53334;51.976;20.144;2023-08-30T13:10:25;26.90;63.90
36652;DHT22;53334;51.976;20.144;2023-08-30T13:12:58;26.90;63.90
36652;DHT22;53334;51.976;20.144;2023-08-30T13:15:31;26.90;63.60
36652;DHT22;53334;51.976;20.144;2023-08-30T13:18:05;26.90;63.30
36652;DHT22;53334;51.976;20.144;2023-08-30T13:20:41;26.90;63.10
36652;DHT22;53334;51.976;20.144;2023-08-30T13:23:16;26.80;62.70
36652;DHT22;53334;51.976;20.144;2023-08-30T13:25:50;26.90;63.00
36652;DHT22;53334;51.976;20.144;2023-08-30T13:28:24;26.90;63.00
36652;DHT22;53334;51.976;20.144;2023-08-30T13:30:57;26.90;62.70
36652;DHT22;53334;51.976;20.144;2023-08-30T13:33:32;26.80;63.00
36652;DHT22;53334;51.976;20.144;2023-08-30T13:36:06;26.90;63.30
36652;DHT22;53334;51.976;20.144;2023-08-30T13:38:45;26.90;63.00
36652;DHT22;53334;51.976;20.144;2023-08-30T13:41:18;26.90;62.70
36652;DHT22;53334;51.976;20.144;2023-08-30T13:43:53;26.80;62.50
36652;DHT22;53334;51.976;20.144;2023-08-30T13:46:30;26.90;62.20
36652;DHT22;53334;51.976;20.144;2023-08-30T13:49:06;26.90;62.00
36652;DHT22;53334;51.976;20.144;2023-08-30T13:51:40;26.90;62.30
36652;DHT22;53334;51.976;20.144;2023-08-30T13:54:14;26.90;62.10
36652;DHT22;53334;51.976;20.144;2023-08-30T13:56:48;26.90;62.00
36652;DHT22;53334;51.976;20.144;2023-08-30T13:59:21;26.90;61.80
36652;DHT22;53334;51.976;20.144;2023-08-30T14:01:54;26.90;61.90
36652;DHT22;53334;51.976;20.144;2023-08-30T14:04:29;26.90;61.70
36652;DHT22;53334;51.976;20.144;2023-08-30T14:07:04;26.90;61.40
36652;DHT22;53334;51.976;20.144;2023-08-30T14:09:39;26.90;61.00
36652;DHT22;53334;51.976;20.144;2023-08-30T14:12:12;26.90;61.10
36652;DHT22;53334;51.976;20.144;2023-08-30T14:14:46;26.90;61.10
36652;DHT22;53334;51.976;20.144;2023-08-30T14:17:19;26.90;60.80
36652;DHT22;53334;51.976;20.144;2023-08-30T14:19:55;26.90;60.50
36652;DHT22;53334;51.976;20.144;2023-08-30T14:22:29;26.90;60.10
36652;DHT22;53334;51.976;20.144;2023-08-30T14:25:04;26.90;60.10
36652;DHT22;53334;51.976;20.144;2023-08-30T14:27:43;26.90;59.80
36652;DHT22;53334;51.976;20.144;2023-08-30T14:30:17;26.80;59.60
36652;DHT22;53334;51.976;20.144;2023-08-30T14:32:51;26.80;59.50
36652;DHT22;53334;51.976;20.144;2023-08-30T14:35:24;26.80;59.40
36652;DHT22;53334;51.976;20.144;2023-08-30T14:37:58;26.80;59.20
36652;DHT22;53334;51.976;20.144;2023-08-30T14:40:34;26.80;59.10
36652;DHT22;53334;51.976;20.144;2023-08-30T14:43:12;26.80;59.00
36652;DHT22;53334;51.976;20.144;2023-08-30T14:45:46;26.80;58.90
36652;DHT22;53334;51.976;20.144;2023-08-30T14:48:34;26.80;59.00
36652;DHT22;53334;51.976;20.144;2023-08-30T14:51:08;26.70;58.80
36652;DHT22;53334;51.976;20.144;2023-08-30T14:53:41;26.70;58.80
36652;DHT22;53334;51.976;20.144;2023-08-30T14:56:16;26.70;58.70
36652;DHT22;53334;51.976;20.144;2023-08-30T14:58:50;26.70;58.60
36652;DHT22;53334;51.976;20.144;2023-08-30T15:01:24;26.70;58.70
36652;DHT22;53334;51.976;20.144;2023-08-30T15:03:58;26.70;58.60
36652;DHT22;53334;51.976;20.144;2023-08-30T15:06:31;26.70;58.60
36652;DHT22;53334;51.976;20.144;2023-08-30T15:09:04;26.70;58.60
36652;DHT22;53334;51.976;20.144;2023-08-30T15:11:39;26.70;58.60
36652;DHT22;53334;51.976;20.144;2023-08-30T15:14:12;26.70;58.60
36652;DHT22;53334;51.976;20.144;2023-08-30T15:16:46;26.70;58.60
36652;DHT22;53334;51.976;20.144;2023-08-30T15:19:19;26.70;58.50
36652;DHT22;53334;51.976;20.144;2023-08-30T15:21:53;26.60;58.40
36652;DHT22;53334;51.976;20.144;2023-08-30T15:24:26;26.60;58.40
36652;DHT22;53334;51.976;20.144;2023-08-30T15:27:01;26.60;58.40
36652;DHT22;53334;51.976;20.144;2023-08-30T15:29:35;26.60;58.40
36652;DHT22;53334;51.976;20.144;2023-08-30T15:32:08;26.60;58.30
36652;DHT22;53334;51.976;20.144;2023-08-30T15:34:42;26.60;58.40
36652;DHT22;53334;51.976;20.144;2023-08-30T15:37:16;26.60;58.50
36652;DHT22;53334;51.976;20.144;2023-08-30T15:39:58;26.60;58.50
36652;DHT22;53334;51.976;20.144;2023-08-30T15:42:35;26.60;58.50
36652;DHT22;53334;51.976;20.144;2023-08-30T15:45:09;26.60;58.40
36652;DHT22;53334;51.976;20.144;2023-08-30T15:47:43;26.60;58.40
36652;DHT22;53334;51.976;20.144;2023-08-30T15:50:16;26.60;58.40
36652;DHT22;53334;51.976;20.144;2023-08-30T15:52:50;26.60;58.40
36652;DHT22;53334;51.976;20.144;2023-08-30T15:55:23;26.60;58.40
36652;DHT22;53334;51.976;20.144;2023-08-30T15:58:01;26.60;58.60
36652;DHT22;53334;51.976;20.144;2023-08-30T16:00:36;26.50;58.40
36652;DHT22;53334;51.976;20.144;2023-08-30T16:03:13;26.50;58.40
36652;DHT22;53334;51.976;20.144;2023-08-30T16:05:47;26.50;58.30